Time;durP1;ratioP1;P1;durP2;ratioP2;P2;SDS_P1;SDS_P2;PMS_P1;PMS_P2;Temp;Humidity;BMP_temperature;BMP_pressure;BME280_temperature;BME280_humidity;BME280_pressure;Samples;Min_cycle;Max_cycle;Signal;HPM_P1;HPM_P2
2021/11/08 00:00:56;;;;;;;19.00;13.30;;;;;;;15.44;60.03;100506.46;117369;1182;22822;-60
2021/11/08 00:03:29;;;;;;;18.70;12.50;;;;;;;15.46;59.95;100504.27;117336;1182;21885;-60
2021/11/08 00:06:01;;;;;;;22.50;13.40;;;;;;;15.46;59.90;100497.36;117404;1180;23653;-63
2021/11/08 00:08:32;;;;;;;21.40;14.30;;;;;;;15.45;59.95;100496.70;117416;1186;24220;-60
2021/11/08 00:11:00;;;;;;;20.40;13.10;;;;;;;15.44;59.94;100492.84;117420;1184;23443;-60
2021/11/08 00:13:29;;;;;;;19.70;13.20;;;;;;;15.44;60.01;100480.48;117364;1185;23547;-59
2021/11/08 00:16:44;;;;;;;20.00;13.10;;;;;;;15.44;59.87;100474.64;117347;1185;21891;-63
2021/11/08 00:22:04;;;;;;;22.30;14.20;;;;;;;15.42;60.02;100470.80;117356;1184;22979;-62
2021/11/08 00:24:52;;;;;;;22.10;14.70;;;;;;;15.41;59.98;100455.98;117312;1185;22960;-60
2021/11/08 00:27:27;;;;;;;19.40;12.10;;;;;;;15.41;59.95;100452.25;117351;1182;24264;-59
2021/11/08 00:30:11;;;;;;;18.70;13.80;;;;;;;15.40;59.97;100457.60;117357;1184;23535;-60
2021/11/08 00:32:41;;;;;;;19.30;13.50;;;;;;;15.39;59.91;100449.16;117413;1185;21987;-62
2021/11/08 00:35:12;;;;;;;20.70;13.80;;;;;;;15.37;60.02;100444.80;117298;1184;21909;-60
2021/11/08 00:37:41;;;;;;;22.60;15.10;;;;;;;15.36;59.89;100455.98;117299;1185;22568;-62
2021/11/08 00:40:10;;;;;;;25.70;16.30;;;;;;;15.36;60.00;100466.42;117350;1185;23465;-61
2021/11/08 00:42:38;;;;;;;22.60;14.50;;;;;;;15.35;59.99;100470.87;117413;1182;21845;-63
2021/11/08 00:45:07;;;;;;;19.40;13.20;;;;;;;15.35;60.09;100463.77;117342;1182;21855;-62
2021/11/08 00:47:36;;;;;;;21.00;13.80;;;;;;;15.35;60.01;100457.42;117470;1185;22911;-62
2021/11/08 00:50:06;;;;;;;22.50;14.20;;;;;;;15.37;60.18;100455.43;117372;1182;23439;-63
2021/11/08 00:52:36;;;;;;;18.30;13.70;;;;;;;15.37;60.04;100455.22;117525;1184;23485;-62
2021/11/08 00:55:04;;;;;;;24.60;14.80;;;;;;;15.37;59.98;100456.27;117456;1186;23438;-63
2021/11/08 00:57:35;;;;;;;18.70;13.50;;;;;;;15.36;59.99;100448.36;117540;1182;22642;-64
2021/11/08 01:00:06;;;;;;;23.90;14.60;;;;;;;15.35;59.99;100443.64;117504;1179;22725;-63
2021/11/08 01:02:36;;;;;;;24.20;14.40;;;;;;;15.34;60.01;100436.94;117364;1185;21844;-63
2021/11/08 01:05:06;;;;;;;20.60;14.20;;;;;;;15.33;60.04;100432.17;117536;1185;23455;-60
2021/11/08 01:07:34;;;;;;;26.20;14.80;;;;;;;15.33;59.88;100437.33;117583;1182;23574;-60
2021/11/08 01:10:07;;;;;;;21.10;15.40;;;;;;;15.30;60.02;100438.63;117469;1186;21856;-60
2021/11/08 01:12:35;;;;;;;22.20;14.80;;;;;;;15.28;60.06;100440.83;117490;1185;21854;-63
2021/11/08 01:15:05;;;;;;;23.90;14.70;;;;;;;15.28;59.97;100440.48;117466;1184;24149;-61
2021/11/08 01:17:33;;;;;;;21.30;13.30;;;;;;;15.27;60.00;100433.08;117529;1186;21855;-60
2021/11/08 01:20:17;;;;;;;21.80;14.00;;;;;;;15.26;59.98;100440.70;117391;1183;23430;-60
2021/11/08 01:22:46;;;;;;;22.80;14.80;;;;;;;15.25;60.10;100442.85;117437;1186;23442;-63
2021/11/08 01:25:14;;;;;;;24.20;14.60;;;;;;;15.25;60.14;100441.46;117439;1185;22916;-62
2021/11/08 01:27:44;;;;;;;22.60;14.40;;;;;;;15.24;60.12;100440.23;117479;1185;21855;-60
2021/11/08 01:30:16;;;;;;;22.70;14.20;;;;;;;15.25;60.16;100445.69;117445;1182;23442;-60
2021/11/08 01:33:07;;;;;;;30.40;17.80;;;;;;;15.26;60.09;100450.25;117431;1186;21862;-62
2021/11/08 01:40:46;;;;;;;25.30;16.70;;;;;;;15.26;60.14;100428.50;117448;1185;23564;-60
2021/11/08 01:43:14;;;;;;;25.10;15.10;;;;;;;15.30;60.03;100431.05;117513;1182;23662;-63
2021/11/08 01:45:43;;;;;;;26.20;17.10;;;;;;;15.32;59.97;100448.82;117505;1185;24164;-63
2021/11/08 01:48:12;;;;;;;25.10;16.70;;;;;;;15.33;60.06;100443.34;117490;1185;21845;-60
2021/11/08 01:50:41;;;;;;;25.20;15.90;;;;;;;15.33;59.95;100430.42;117480;1184;23537;-63
2021/11/08 01:53:09;;;;;;;22.40;15.70;;;;;;;15.31;59.95;100433.11;117442;1183;22915;-59
2021/11/08 01:55:38;;;;;;;29.30;18.60;;;;;;;15.33;59.99;100454.64;117467;1185;22895;-60
2021/11/08 01:58:06;;;;;;;31.40;19.00;;;;;;;15.34;59.97;100458.34;117356;1185;24197;-60
2021/11/08 02:00:34;;;;;;;29.50;18.40;;;;;;;15.34;59.98;100473.18;117571;1185;21851;-60
2021/11/08 02:03:03;;;;;;;25.70;17.80;;;;;;;15.34;59.88;100459.91;117544;1184;21841;-63
2021/11/08 02:05:31;;;;;;;25.30;16.50;;;;;;;15.34;59.95;100442.05;117489;1182;21844;-60
2021/11/08 02:08:02;;;;;;;32.50;18.10;;;;;;;15.35;59.84;100454.59;117381;1186;23439;-60
2021/11/08 02:10:32;;;;;;;25.90;16.90;;;;;;;15.35;59.98;100474.20;117398;1182;23557;-62
2021/11/08 02:13:00;;;;;;;29.40;18.80;;;;;;;15.35;59.87;100474.58;117450;1186;23544;-60
2021/11/08 02:15:29;;;;;;;34.20;20.30;;;;;;;15.35;59.94;100467.67;117443;1182;21918;-62
2021/11/08 02:17:58;;;;;;;34.90;19.20;;;;;;;15.34;59.93;100464.17;117480;1183;21864;-60
2021/11/08 02:20:28;;;;;;;28.20;19.60;;;;;;;15.33;59.99;100463.85;117325;1186;21871;-60
2021/11/08 02:22:59;;;;;;;31.20;20.50;;;;;;;15.31;59.92;100466.36;117368;1182;24160;-62
2021/11/08 02:25:29;;;;;;;29.10;18.20;;;;;;;15.30;59.98;100474.16;117360;1183;21895;-62
2021/11/08 02:27:57;;;;;;;27.10;17.50;;;;;;;15.28;59.94;100478.30;117578;1186;21970;-62
2021/11/08 02:30:28;;;;;;;28.20;18.50;;;;;;;15.26;59.82;100496.92;117502;1185;23461;-63
2021/11/08 02:32:57;;;;;;;27.30;17.40;;;;;;;15.24;59.97;100510.95;117457;1182;23656;-60
2021/11/08 02:35:26;;;;;;;25.80;16.60;;;;;;;15.24;59.95;100484.08;117403;1182;23548;-60
2021/11/08 02:37:54;;;;;;;25.00;16.30;;;;;;;15.23;60.01;100452.48;117379;1185;21854;-62
2021/11/08 02:40:25;;;;;;;30.40;18.40;;;;;;;15.23;59.91;100431.61;117513;1185;22097;-63
2021/11/08 02:42:54;;;;;;;;;;;;;;;15.18;60.17;100436.03;117554;1186;23432;-63
2021/11/08 02:45:24;;;;;;;25.10;15.50;;;;;;;15.16;60.23;100447.73;117477;1183;23528;-60
2021/11/08 02:47:53;;;;;;;29.80;17.50;;;;;;;15.15;60.16;100475.50;117403;1184;23369;-63
2021/11/08 02:50:27;;;;;;;29.80;18.30;;;;;;;15.14;60.17;100480.84;117387;1185;21858;-61
2021/11/08 02:53:02;;;;;;;25.20;17.50;;;;;;;15.13;60.19;100485.11;117367;1185;23439;-61
2021/11/08 02:55:31;;;;;;;28.60;19.30;;;;;;;15.14;60.07;100485.09;117371;1185;22916;-63
2021/11/08 02:58:00;;;;;;;31.10;18.80;;;;;;;15.13;60.07;100483.86;117580;1185;21845;-63
2021/11/08 03:00:29;;;;;;;28.30;18.60;;;;;;;15.10;60.07;100462.75;117515;1185;23461;-63
2021/11/08 03:02:58;;;;;;;27.40;17.70;;;;;;;15.08;60.26;100452.38;117413;1183;22660;-60
2021/11/08 03:05:36;;;;;;;26.10;17.50;;;;;;;15.07;60.26;100454.52;117500;1185;21894;-61
2021/11/08 03:08:08;;;;;;;26.60;18.10;;;;;;;15.08;60.21;100453.27;117409;1182;22831;-61
2021/11/08 03:10:38;;;;;;;29.00;19.20;;;;;;;15.09;60.26;100460.66;117391;1185;22261;-61
2021/11/08 03:13:18;;;;;;;29.10;20.10;;;;;;;15.09;60.26;100479.39;117448;1185;22336;-60
2021/11/08 03:16:13;;;;;;;27.40;19.40;;;;;;;15.08;60.26;100466.54;117419;1185;21863;-60
2021/11/08 03:18:42;;;;;;;;;;;;;;;15.07;60.21;100486.69;117361;1185;21839;-63
2021/11/08 03:21:18;;;;;;;30.30;18.90;;;;;;;15.06;60.18;100479.29;117382;1185;21844;-62
2021/11/08 03:23:49;;;;;;;30.40;19.00;;;;;;;15.05;60.28;100472.44;117536;1185;21892;-63
2021/11/08 03:28:53;;;;;;;32.90;20.90;;;;;;;14.99;60.27;100477.90;117348;1185;23557;-63
2021/11/08 03:31:22;;;;;;;30.60;20.50;;;;;;;14.99;60.30;100478.96;117388;1182;22748;-60
2021/11/08 03:33:52;;;;;;;30.80;20.70;;;;;;;15.00;60.26;100472.60;117420;1176;21848;-63
2021/11/08 03:36:20;;;;;;;31.60;20.30;;;;;;;14.99;60.37;100476.50;117459;1182;24152;-61
2021/11/08 03:38:48;;;;;;;28.30;17.90;;;;;;;14.98;60.25;100466.27;117419;1183;21855;-61
2021/11/08 03:41:16;;;;;;;32.90;20.20;;;;;;;14.95;60.24;100461.60;117449;1182;22912;-62
2021/11/08 03:43:44;;;;;;;25.70;19.30;;;;;;;14.92;60.19;100473.70;117543;1182;22625;-63
2021/11/08 03:46:13;;;;;;;32.80;18.50;;;;;;;14.90;60.25;100480.65;117496;1185;23465;-63
2021/11/08 03:48:41;;;;;;;30.80;21.20;;;;;;;14.88;60.21;100469.39;117371;1185;23464;-60
2021/11/08 03:51:11;;;;;;;32.70;18.80;;;;;;;14.88;60.28;100470.65;117553;1186;22076;-63
2021/11/08 03:53:39;;;;;;;28.40;18.50;;;;;;;14.86;60.17;100466.08;117561;1186;21893;-63
2021/11/08 03:56:07;;;;;;;25.50;17.70;;;;;;;14.86;60.26;100465.55;117468;1183;23439;-63
2021/11/08 03:58:36;;;;;;;29.90;19.50;;;;;;;14.88;60.18;100472.39;117351;1182;23615;-60
2021/11/08 04:01:05;;;;;;;29.20;20.70;;;;;;;14.90;60.30;100477.64;117564;1182;21849;-63
2021/11/08 04:03:34;;;;;;;29.40;18.20;;;;;;;14.91;60.13;100478.69;117547;1185;21851;-60
2021/11/08 04:06:03;;;;;;;30.20;20.20;;;;;;;14.90;60.25;100480.83;117488;1185;23472;-63
2021/11/08 04:08:34;;;;;;;31.70;20.50;;;;;;;14.89;60.28;100477.13;117503;1182;22911;-60
2021/11/08 04:11:03;;;;;;;32.90;21.50;;;;;;;14.92;60.35;100464.17;117502;1183;21855;-61
2021/11/08 04:13:36;;;;;;;35.90;22.20;;;;;;;14.89;60.35;100458.95;117519;1185;21995;-63
2021/11/08 04:16:06;;;;;;;30.50;21.20;;;;;;;14.88;60.49;100452.27;117460;1185;23436;-63
2021/11/08 04:18:35;;;;;;;34.50;20.20;;;;;;;14.91;60.37;100439.64;117497;1185;21857;-63
2021/11/08 04:21:05;;;;;;;35.00;20.00;;;;;;;14.91;60.32;100445.81;117415;1182;23458;-64
2021/11/08 04:23:34;;;;;;;32.70;20.50;;;;;;;14.93;60.37;100450.54;117353;1185;22925;-64
2021/11/08 04:26:03;;;;;;;29.80;20.10;;;;;;;14.94;60.29;100441.33;117411;1185;21854;-64
2021/11/08 04:28:32;;;;;;;36.40;21.40;;;;;;;14.93;60.38;100434.80;117406;1183;23587;-63
2021/11/08 04:31:00;;;;;;;42.50;25.00;;;;;;;14.92;60.26;100428.31;117404;1185;23487;-61
2021/11/08 04:33:46;;;;;;;40.60;27.10;;;;;;;14.90;60.36;100423.77;117408;1186;24154;-63
2021/11/08 04:41:53;;;;;;;33.10;22.40;;;;;;;14.88;60.33;100421.34;117426;1186;23447;-63
2021/11/08 04:50:21;;;;;;;63.30;50.40;;;;;;;14.77;60.33;100459.81;117288;1185;23570;-64
2021/11/08 04:53:11;;;;;;;65.60;56.20;;;;;;;14.76;60.22;100477.52;117280;1184;21848;-63
2021/11/08 05:29:52;;;;;;;36.50;22.50;;;;;;;14.75;60.36;100475.25;117358;1185;23446;-61
2021/11/08 05:31:29;;;;;;;33.60;22.00;;;;;;;14.76;60.36;100479.98;117307;1185;24154;-60
2021/11/08 05:34:00;;;;;;;32.00;20.80;;;;;;;14.77;60.41;100484.90;117282;1186;23548;-61
2021/11/08 05:36:29;;;;;;;31.10;21.40;;;;;;;14.80;60.35;100497.52;117394;1186;23538;-64
2021/11/08 05:38:57;;;;;;;39.90;23.10;;;;;;;14.83;60.41;100508.91;117361;1185;21857;-60
2021/11/08 05:41:27;;;;;;;34.50;23.30;;;;;;;14.84;60.45;100511.53;117397;1185;21858;-60
2021/11/08 05:44:02;;;;;;;34.30;23.60;;;;;;;14.86;60.40;100516.80;117345;1183;22728;-61
2021/11/08 05:46:31;;;;;;;33.50;22.40;;;;;;;14.86;60.32;100523.67;117415;1185;21855;-61
2021/11/08 05:48:59;;;;;;;37.80;24.00;;;;;;;14.84;60.43;100531.67;117440;1185;21855;-64
2021/11/08 05:51:28;;;;;;;31.60;21.50;;;;;;;14.84;60.37;100537.19;117458;1182;21855;-60
2021/11/08 05:53:56;;;;;;;30.40;20.70;;;;;;;14.84;60.45;100537.52;117350;1186;22914;-60
2021/11/08 05:56:33;;;;;;;30.80;21.60;;;;;;;14.87;60.39;100530.72;117387;1183;23570;-60
2021/11/08 05:59:22;;;;;;;31.80;20.80;;;;;;;14.89;60.39;100538.98;117373;1183;23474;-63
2021/11/08 06:49:35;;;;;;;35.80;21.20;;;;;;;14.95;60.62;100574.52;117256;1186;23454;-60
2021/11/08 06:52:05;;;;;;;33.80;21.60;;;;;;;14.97;60.67;100577.81;117381;1185;21853;-64
2021/11/08 06:54:34;;;;;;;37.60;22.20;;;;;;;15.00;60.69;100582.31;117408;1185;21845;-63
2021/11/08 06:57:11;;;;;;;34.90;23.60;;;;;;;15.02;60.58;100585.98;117438;1186;24703;-60
2021/11/08 06:59:40;;;;;;;32.60;22.70;;;;;;;15.07;60.74;100589.19;117443;1186;21855;-60
2021/11/08 07:02:11;;;;;;;30.60;21.70;;;;;;;15.09;60.71;100594.25;117403;1182;22896;-64
2021/11/08 07:04:39;;;;;;;32.20;22.20;;;;;;;15.10;60.71;100593.54;117481;1183;23447;-60
2021/11/08 07:07:09;;;;;;;32.00;22.00;;;;;;;15.12;60.65;100594.20;117395;1182;21892;-60
2021/11/08 07:09:38;;;;;;;32.30;22.10;;;;;;;15.14;60.71;100589.70;117395;1186;21845;-63
2021/11/08 07:12:07;;;;;;;33.60;22.30;;;;;;;15.19;60.74;100582.16;117419;1185;21857;-60
2021/11/08 07:14:35;;;;;;;32.30;22.70;;;;;;;15.23;60.72;100573.56;117373;1183;21847;-60
2021/11/08 07:17:04;;;;;;;32.40;23.20;;;;;;;15.25;60.67;100563.58;117324;1186;23465;-64
2021/11/08 07:19:32;;;;;;;33.30;22.70;;;;;;;15.26;60.80;100560.02;117361;1183;23442;-64
2021/11/08 07:22:02;;;;;;;36.80;23.70;;;;;;;15.32;60.90;100562.52;117307;1185;21836;-63
2021/11/08 07:24:30;;;;;;;37.10;22.50;;;;;;;15.41;60.87;100565.44;117433;1185;23464;-60
2021/11/08 07:26:58;;;;;;;34.80;23.30;;;;;;;15.56;61.03;100561.11;117374;1183;21858;-60
2021/11/08 07:29:28;;;;;;;35.00;24.40;;;;;;;15.69;61.06;100551.52;117327;1183;24144;-64
2021/11/08 07:31:57;;;;;;;33.40;24.80;;;;;;;15.82;61.09;100547.58;117397;1186;22650;-60
2021/11/08 07:34:25;;;;;;;34.10;24.10;;;;;;;15.92;61.03;100551.52;117336;1183;23441;-64
2021/11/08 07:36:54;;;;;;;31.20;22.30;;;;;;;15.97;60.91;100552.98;117365;1183;24168;-63
2021/11/08 07:39:23;;;;;;;33.00;23.20;;;;;;;16.00;60.89;100552.35;117365;1185;23270;-63
2021/11/08 07:41:52;;;;;;;31.00;23.30;;;;;;;16.06;60.80;100552.16;117367;1183;21910;-60
2021/11/08 07:44:20;;;;;;;27.20;20.70;;;;;;;16.08;60.84;100550.49;117468;1186;21858;-63
2021/11/08 07:46:50;;;;;;;30.30;22.10;;;;;;;16.11;60.83;100554.13;117489;1183;23475;-63
2021/11/08 07:49:18;;;;;;;28.00;20.70;;;;;;;16.15;60.90;100563.91;117384;1184;21839;-63
2021/11/08 07:51:47;;;;;;;27.00;21.40;;;;;;;16.20;60.90;100560.55;117364;1186;23442;-60
2021/11/08 07:54:15;;;;;;;28.10;21.00;;;;;;;16.27;60.98;100556.96;117404;1185;23545;-63
2021/11/08 07:56:47;;;;;;;26.50;20.00;;;;;;;16.31;60.95;100551.89;117207;1183;21961;-63
2021/11/08 07:59:16;;;;;;;26.00;20.00;;;;;;;16.31;60.87;100552.06;117340;1183;22619;-60
2021/11/08 08:01:47;;;;;;;24.60;20.30;;;;;;;16.34;60.84;100544.86;117431;1184;21854;-62
2021/11/08 08:04:16;;;;;;;30.10;21.80;;;;;;;16.35;60.94;100541.81;117461;1183;21845;-58
2021/11/08 08:06:45;;;;;;;25.40;20.90;;;;;;;16.38;60.92;100539.05;117470;1185;21856;-62
2021/11/08 08:09:14;;;;;;;29.70;21.80;;;;;;;16.45;60.95;100543.79;117408;1182;22913;-58
2021/11/08 08:11:43;;;;;;;22.90;18.30;;;;;;;16.53;61.10;100546.36;117370;1183;23560;-62
2021/11/08 08:14:12;;;;;;;25.00;20.20;;;;;;;16.65;61.12;100544.35;117430;1185;21840;-61
2021/11/08 08:16:40;;;;;;;24.70;18.60;;;;;;;16.76;61.24;100545.91;117391;1183;22972;-62
2021/11/08 08:19:09;;;;;;;31.00;25.70;;;;;;;16.88;61.17;100548.33;117350;1184;21857;-59
2021/11/08 08:21:38;;;;;;;28.60;21.20;;;;;;;16.99;61.26;100553.61;117552;1185;23520;-62
2021/11/08 08:24:06;;;;;;;27.10;19.50;;;;;;;17.08;61.21;100554.89;117327;1183;23566;-60
2021/11/08 08:26:36;;;;;;;24.90;19.70;;;;;;;17.18;61.20;100557.38;117409;1183;23449;-61
2021/11/08 08:29:07;;;;;;;27.60;19.40;;;;;;;17.27;61.22;100562.20;117302;1185;21855;-63
2021/11/08 08:31:37;;;;;;;23.00;17.70;;;;;;;17.31;61.12;100568.23;117360;1179;22645;-60
2021/11/08 08:34:06;;;;;;;30.60;20.40;;;;;;;17.33;60.98;100577.56;117361;1183;24205;-63
2021/11/08 08:36:34;;;;;;;25.90;19.00;;;;;;;17.37;61.07;100579.55;117428;1182;23006;-64
2021/11/08 08:39:04;;;;;;;34.80;23.20;;;;;;;17.41;61.07;100590.05;117380;1185;23586;-65
2021/11/08 08:41:34;;;;;;;35.10;21.40;;;;;;;17.43;61.06;100597.98;117380;1185;23560;-59
2021/11/08 08:44:02;;;;;;;30.10;20.60;;;;;;;17.42;61.07;100594.11;117396;1184;21909;-60
2021/11/08 08:46:32;;;;;;;23.90;17.60;;;;;;;17.41;61.01;100578.90;117401;1183;23749;-60
2021/11/08 08:49:00;;;;;;;22.10;17.50;;;;;;;17.42;61.09;100565.38;117409;1182;23556;-59
2021/11/08 08:51:28;;;;;;;22.90;17.20;;;;;;;17.45;61.10;100557.61;117402;1182;23442;-63
2021/11/08 08:54:02;;;;;;;26.00;18.50;;;;;;;17.47;61.06;100543.16;117397;1185;21854;-63
2021/11/08 08:56:30;;;;;;;30.30;20.30;;;;;;;17.51;61.12;100527.05;117392;1180;22913;-60
2021/11/08 08:58:59;;;;;;;32.30;22.10;;;;;;;17.55;60.99;100514.48;117363;1186;21858;-59
2021/11/08 09:01:27;;;;;;;28.30;20.80;;;;;;;17.55;60.98;100498.33;117401;1186;23471;-60
2021/11/08 09:03:57;;;;;;;22.60;17.30;;;;;;;17.51;61.02;100484.10;117344;1186;23439;-63
2021/11/08 09:06:26;;;;;;;24.90;17.00;;;;;;;17.53;61.00;100481.20;117398;1185;21862;-63
2021/11/08 09:08:54;;;;;;;25.70;18.60;;;;;;;17.53;60.96;100479.77;117426;1185;21862;-59
2021/11/08 09:11:23;;;;;;;23.60;16.70;;;;;;;17.51;60.91;100492.83;117337;1182;21860;-59
2021/11/08 09:13:52;;;;;;;27.50;18.90;;;;;;;17.46;61.04;100504.53;117381;1186;22853;-60
2021/11/08 09:16:40;;;;;;;25.90;18.20;;;;;;;17.45;61.03;100495.02;117312;1185;21849;-64
2021/11/08 09:19:08;;;;;;;20.20;16.90;;;;;;;17.47;61.04;100484.98;117331;1183;23461;-64
2021/11/08 09:21:36;;;;;;;22.50;18.00;;;;;;;17.53;61.31;100486.16;117361;1183;21846;-63
2021/11/08 09:24:05;;;;;;;41.70;20.90;;;;;;;17.61;61.26;100491.56;117389;1179;22619;-63
2021/11/08 09:26:34;;;;;;;126.40;34.50;;;;;;;17.69;61.46;100500.41;117477;1185;21861;-62
2021/11/08 09:29:03;;;;;;;36.70;20.30;;;;;;;17.78;61.40;100508.41;117420;1179;22976;-60
2021/11/08 09:31:32;;;;;;;28.10;18.70;;;;;;;17.86;61.49;100515.02;117397;1183;22959;-60
2021/11/08 09:34:05;;;;;;;96.00;31.00;;;;;;;17.95;61.38;100525.85;117389;1186;22905;-62
2021/11/08 09:36:35;;;;;;;23.90;17.40;;;;;;;17.96;61.28;100534.50;117398;1186;21854;-61
2021/11/08 09:39:10;;;;;;;20.80;16.70;;;;;;;17.97;61.14;100540.14;117446;1184;21892;-63
2021/11/08 09:41:40;;;;;;;22.50;17.20;;;;;;;18.03;61.20;100550.77;117380;1182;23442;-59
2021/11/08 09:44:08;;;;;;;22.90;17.00;;;;;;;18.08;61.29;100554.66;117233;1183;22657;-63
2021/11/08 09:46:37;;;;;;;18.40;15.70;;;;;;;18.17;61.22;100559.97;117392;1183;22622;-60
2021/11/08 09:49:06;;;;;;;21.50;17.10;;;;;;;18.21;60.91;100567.64;117360;1184;22970;-64
2021/11/08 09:51:38;;;;;;;28.20;19.40;;;;;;;18.18;60.98;100572.55;117355;1180;22915;-63
2021/11/08 09:54:10;;;;;;;23.50;17.10;;;;;;;18.20;60.99;100576.02;117402;1186;21864;-59
2021/11/08 09:56:39;;;;;;;30.80;22.50;;;;;;;18.23;60.91;100574.81;117403;1182;23461;-64
2021/11/08 09:59:08;;;;;;;22.10;17.80;;;;;;;18.23;60.83;100569.88;117500;1185;21963;-60
2021/11/08 10:01:45;;;;;;;25.40;18.50;;;;;;;18.20;60.81;100558.78;117357;1185;21852;-60
2021/11/08 10:04:14;;;;;;;40.10;28.20;;;;;;;18.16;60.80;100552.72;117384;1182;21855;-59
2021/11/08 10:06:43;;;;;;;32.10;23.70;;;;;;;18.11;60.78;100556.30;117390;1184;21828;-59
2021/11/08 10:09:12;;;;;;;27.50;22.20;;;;;;;18.06;60.72;100550.14;117440;1185;23557;-64
2021/11/08 10:11:41;;;;;;;27.40;21.20;;;;;;;17.99;60.77;100540.64;117401;1186;22905;-60
2021/11/08 10:14:09;;;;;;;29.30;20.20;;;;;;;17.93;60.99;100539.05;117447;1183;22928;-63
2021/11/08 10:16:40;;;;;;;23.40;18.70;;;;;;;17.89;60.93;100531.77;117353;1186;24155;-60
2021/11/08 10:19:11;;;;;;;25.60;19.40;;;;;;;17.85;60.94;100529.27;117511;1182;23478;-60
2021/11/08 10:21:46;;;;;;;20.10;17.50;;;;;;;17.82;60.91;100532.56;117387;1185;22985;-59
2021/11/08 10:24:26;;;;;;;31.70;22.40;;;;;;;17.82;60.98;100539.50;117339;1183;21849;-60
2021/11/08 10:26:55;;;;;;;29.40;21.10;;;;;;;17.80;61.08;100550.22;117352;1176;23480;-63
2021/11/08 10:29:24;;;;;;;25.80;19.40;;;;;;;17.78;61.07;100555.63;117351;1184;24277;-63
2021/11/08 10:32:08;;;;;;;25.20;18.80;;;;;;;17.78;61.15;100556.01;117216;1183;23553;-59
2021/11/08 10:35:05;;;;;;;22.20;17.30;;;;;;;17.76;60.97;100549.84;117372;1185;23589;-59
2021/11/08 10:37:34;;;;;;;20.30;16.30;;;;;;;17.75;61.05;100549.54;117195;1185;21904;-63
2021/11/08 10:40:03;;;;;;;29.60;21.80;;;;;;;17.71;61.07;100555.72;117301;1183;21964;-59
2021/11/08 10:42:57;;;;;;;21.00;16.20;;;;;;;17.66;61.03;100566.17;117350;1186;24155;-60
2021/11/08 10:45:25;;;;;;;21.20;16.50;;;;;;;17.65;61.05;100572.30;117358;1183;23455;-59
2021/11/08 10:48:01;;;;;;;19.20;15.90;;;;;;;17.63;61.04;100571.31;117298;1183;23608;-64
2021/11/08 10:50:40;;;;;;;21.40;16.20;;;;;;;17.62;61.05;100567.42;117340;1182;21850;-59
2021/11/08 10:53:08;;;;;;;20.10;15.50;;;;;;;17.62;61.12;100573.30;117334;1183;22621;-63
2021/11/08 10:55:36;;;;;;;20.40;14.80;;;;;;;17.62;61.06;100580.39;117374;1185;23443;-63
2021/11/08 10:58:15;;;;;;;21.20;14.80;;;;;;;17.62;60.99;100587.31;117319;1183;23566;-63
2021/11/08 11:00:48;;;;;;;22.20;16.50;;;;;;;17.60;60.94;100586.31;117407;1182;23461;-60
2021/11/08 11:03:19;;;;;;;24.50;18.20;;;;;;;17.59;61.03;100576.25;117359;1183;21898;-63
2021/11/08 11:05:57;;;;;;;;;;;;;;;17.56;61.08;100567.31;117401;1176;23449;-60
2021/11/08 11:08:25;;;;;;;25.60;17.50;;;;;;;17.53;61.10;100561.38;117413;1186;22648;-60
2021/11/08 11:10:56;;;;;;;26.80;20.50;;;;;;;17.50;61.10;100559.52;117401;1183;23478;-64
2021/11/08 11:13:38;;;;;;;32.00;21.90;;;;;;;17.46;60.99;100565.55;117382;1186;23584;-60
2021/11/08 11:16:07;;;;;;;27.10;21.20;;;;;;;17.41;60.93;100573.00;117384;1186;23429;-60
2021/11/08 11:18:37;;;;;;;33.90;23.20;;;;;;;17.36;60.94;100572.84;117341;1182;22944;-60
2021/11/08 11:21:12;;;;;;;;;;;;;;;17.30;60.92;100580.71;117373;1183;21839;-64
2021/11/08 11:23:46;;;;;;;28.70;20.90;;;;;;;17.24;61.00;100583.03;117434;1185;21849;-63
2021/11/08 11:26:14;;;;;;;30.30;21.30;;;;;;;17.16;60.93;100587.25;117336;1183;22629;-59
2021/11/08 11:28:45;;;;;;;26.40;20.10;;;;;;;17.08;60.97;100581.31;117389;1185;22248;-63
2021/11/08 11:31:19;;;;;;;29.40;20.20;;;;;;;17.04;60.95;100575.23;117384;1182;23452;-59
2021/11/08 11:33:50;;;;;;;31.40;20.00;;;;;;;16.97;60.91;100576.20;117334;1185;22870;-64
2021/11/08 11:36:38;;;;;;;28.30;19.50;;;;;;;16.93;60.93;100571.17;117342;1185;22926;-63
2021/11/08 11:39:10;;;;;;;28.60;18.80;;;;;;;16.89;60.89;100575.05;117182;1185;24162;-59
2021/11/08 11:41:42;;;;;;;29.60;20.90;;;;;;;16.84;60.96;100582.67;117284;1185;21931;-59
2021/11/08 11:44:19;;;;;;;30.10;22.00;;;;;;;16.84;60.97;100578.41;117261;1185;22935;-59
2021/11/08 11:46:53;;;;;;;30.90;22.60;;;;;;;16.85;60.96;100569.15;117285;1185;21899;-63
2021/11/08 11:49:21;;;;;;;38.60;28.30;;;;;;;16.87;61.03;100560.94;117282;1185;23462;-59
2021/11/08 11:51:57;;;;;;;30.30;22.70;;;;;;;16.89;61.05;100552.02;117288;1185;24159;-59
2021/11/08 11:54:29;;;;;;;31.20;23.30;;;;;;;16.93;61.00;100546.89;117254;1186;22956;-63
2021/11/08 11:56:59;;;;;;;26.80;20.80;;;;;;;16.98;61.29;100555.98;117261;1186;24145;-63
2021/11/08 11:59:27;;;;;;;25.90;20.10;;;;;;;17.07;61.36;100560.45;117272;1185;22658;-64
2021/11/08 12:01:55;;;;;;;25.60;18.60;;;;;;;17.16;61.38;100560.64;117364;1182;22630;-63
2021/11/08 12:04:25;;;;;;;25.10;18.00;;;;;;;17.28;61.38;100561.08;117303;1185;23478;-64
2021/11/08 12:06:59;;;;;;;27.60;22.90;;;;;;;17.46;61.66;100571.07;117326;1183;22926;-64
2021/11/08 12:09:40;;;;;;;30.30;21.30;;;;;;;17.70;61.56;100565.52;117195;1186;23548;-64
2021/11/08 12:12:24;;;;;;;28.80;21.30;;;;;;;17.90;61.81;100557.48;117229;1185;23547;-59
2021/11/08 12:15:07;;;;;;;34.60;27.40;;;;;;;18.13;61.87;100551.45;117345;1182;22751;-59
2021/11/08 12:17:38;;;;;;;25.20;19.50;;;;;;;18.30;61.77;100546.63;117480;1183;23091;-64
2021/11/08 12:20:09;;;;;;;24.60;19.10;;;;;;;18.45;61.73;100548.85;117400;1185;21847;-64
2021/11/08 12:22:37;;;;;;;21.10;17.90;;;;;;;18.58;61.72;100546.51;117328;1183;22624;-64
2021/11/08 12:25:09;;;;;;;20.50;16.70;;;;;;;18.69;61.59;100553.38;117367;1183;24138;-60
2021/11/08 12:27:49;;;;;;;23.50;16.60;;;;;;;18.76;61.61;100559.96;117346;1176;21858;-62
2021/11/08 12:30:20;;;;;;;;;;;;;;;18.80;61.36;100558.02;117401;1176;21839;-64
2021/11/08 12:32:51;;;;;;;19.30;15.10;;;;;;;18.77;61.23;100561.88;117460;1186;23015;-64
2021/11/08 12:35:40;;;;;;;22.60;16.80;;;;;;;18.73;61.28;100570.05;117430;1186;21857;-64
2021/11/08 12:38:28;;;;;;;22.60;17.40;;;;;;;18.67;61.04;100591.65;117456;1185;21856;-60
2021/11/08 12:41:10;;;;;;;22.60;16.60;;;;;;;18.53;60.74;100589.05;117401;1186;23442;-60
2021/11/08 12:43:41;;;;;;;20.90;15.90;;;;;;;18.38;60.74;100581.70;117420;1183;24225;-60
2021/11/08 12:46:14;;;;;;;22.90;16.70;;;;;;;18.25;60.75;100586.63;117397;1183;22814;-64
2021/11/08 12:48:44;;;;;;;27.90;19.10;;;;;;;18.14;60.88;100599.51;117486;1183;23464;-64
2021/11/08 12:51:13;;;;;;;24.30;19.40;;;;;;;18.05;60.90;100603.10;117511;1185;23567;-64
2021/11/08 12:53:43;;;;;;;23.70;17.10;;;;;;;17.95;60.85;100599.16;117584;1182;21858;-60
2021/11/08 12:56:23;;;;;;;17.70;15.00;;;;;;;17.88;60.82;100592.89;117595;1183;23566;-60
2021/11/08 12:58:57;;;;;;;24.50;16.80;;;;;;;17.82;60.79;100595.05;117513;1185;23515;-62
2021/11/08 13:01:41;;;;;;;22.10;17.60;;;;;;;17.77;60.84;100600.21;117487;1182;21854;-60
2021/11/08 13:04:31;;;;;;;25.90;18.70;;;;;;;17.71;60.81;100605.76;117518;1182;23475;-60